sensor_id;sensor_type;location;lat;lon;timestamp;P1;durP1;ratioP1;P2;durP2;ratioP2
6193;SDS011;3130;41.564;23.280;2023-08-24T00:00:37;13.67;;;10.87;;
6193;SDS011;3130;41.564;23.280;2023-08-24T00:03:04;12.97;;;11.67;;
6193;SDS011;3130;41.564;23.280;2023-08-24T00:05:32;13.17;;;11.37;;
6193;SDS011;3130;41.564;23.280;2023-08-24T00:08:02;15.80;;;12.10;;
6193;SDS011;3130;41.564;23.280;2023-08-24T00:10:30;15.37;;;11.50;;
6193;SDS011;3130;41.564;23.280;2023-08-24T00:12:59;11.30;;;10.30;;
6193;SDS011;3130;41.564;23.280;2023-08-24T00:15:26;14.50;;;11.37;;
6193;SDS011;3130;41.564;23.280;2023-08-24T00:17:54;12.40;;;11.17;;
6193;SDS011;3130;41.564;23.280;2023-08-24T00:20:22;13.33;;;10.90;;
6193;SDS011;3130;41.564;23.280;2023-08-24T00:22:49;10.93;;;9.93;;
6193;SDS011;3130;41.564;23.280;2023-08-24T00:25:16;12.10;;;10.90;;
6193;SDS011;3130;41.564;23.280;2023-08-24T00:27:44;15.07;;;11.90;;
6193;SDS011;3130;41.564;23.280;2023-08-24T00:30:12;12.40;;;11.20;;
6193;SDS011;3130;41.564;23.280;2023-08-24T00:32:40;13.80;;;11.27;;
6193;SDS011;3130;41.564;23.280;2023-08-24T00:35:08;12.83;;;11.20;;
6193;SDS011;3130;41.564;23.280;2023-08-24T00:37:36;14.93;;;11.10;;
6193;SDS011;3130;41.564;23.280;2023-08-24T00:40:04;11.80;;;10.60;;
6193;SDS011;3130;41.564;23.280;2023-08-24T00:42:36;12.30;;;10.47;;
6193;SDS011;3130;41.564;23.280;2023-08-24T00:45:04;12.87;;;10.53;;
6193;SDS011;3130;41.564;23.280;2023-08-24T00:47:33;12.87;;;11.43;;
6193;SDS011;3130;41.564;23.280;2023-08-24T00:50:01;12.87;;;11.27;;
6193;SDS011;3130;41.564;23.280;2023-08-24T00:52:29;12.90;;;11.40;;
6193;SDS011;3130;41.564;23.280;2023-08-24T00:54:57;14.13;;;12.10;;
6193;SDS011;3130;41.564;23.280;2023-08-24T00:57:25;14.17;;;11.47;;
6193;SDS011;3130;41.564;23.280;2023-08-24T00:59:53;13.10;;;11.80;;
6193;SDS011;3130;41.564;23.280;2023-08-24T01:02:21;15.03;;;12.20;;
6193;SDS011;3130;41.564;23.280;2023-08-24T01:04:49;12.77;;;10.83;;
6193;SDS011;3130;41.564;23.280;2023-08-24T01:07:16;12.63;;;11.17;;
6193;SDS011;3130;41.564;23.280;2023-08-24T01:09:44;14.83;;;12.27;;
6193;SDS011;3130;41.564;23.280;2023-08-24T01:12:16;12.80;;;11.50;;
6193;SDS011;3130;41.564;23.280;2023-08-24T01:14:52;12.80;;;11.50;;
6193;SDS011;3130;41.564;23.280;2023-08-24T01:17:27;13.33;;;12.00;;
6193;SDS011;3130;41.564;23.280;2023-08-24T01:19:58;12.50;;;11.20;;
6193;SDS011;3130;41.564;23.280;2023-08-24T01:22:33;13.37;;;11.30;;
6193;SDS011;3130;41.564;23.280;2023-08-24T01:25:12;12.57;;;11.27;;
6193;SDS011;3130;41.564;23.280;2023-08-24T01:27:43;13.27;;;11.17;;
6193;SDS011;3130;41.564;23.280;2023-08-24T01:30:13;14.23;;;12.77;;
6193;SDS011;3130;41.564;23.280;2023-08-24T01:32:40;13.13;;;11.83;;
6193;SDS011;3130;41.564;23.280;2023-08-24T01:35:08;13.97;;;11.43;;
6193;SDS011;3130;41.564;23.280;2023-08-24T01:37:36;14.13;;;11.73;;
6193;SDS011;3130;41.564;23.280;2023-08-24T01:40:05;12.50;;;11.17;;
6193;SDS011;3130;41.564;23.280;2023-08-24T01:42:35;12.63;;;11.33;;
6193;SDS011;3130;41.564;23.280;2023-08-24T01:45:10;16.20;;;11.93;;
6193;SDS011;3130;41.564;23.280;2023-08-24T01:47:39;13.37;;;12.17;;
6193;SDS011;3130;41.564;23.280;2023-08-24T01:50:09;15.23;;;12.00;;
6193;SDS011;3130;41.564;23.280;2023-08-24T01:52:36;13.00;;;11.43;;
6193;SDS011;3130;41.564;23.280;2023-08-24T01:55:04;15.80;;;12.80;;
6193;SDS011;3130;41.564;23.280;2023-08-24T01:57:31;12.77;;;11.50;;
6193;SDS011;3130;41.564;23.280;2023-08-24T01:59:58;13.67;;;12.27;;
6193;SDS011;3130;41.564;23.280;2023-08-24T02:02:27;13.13;;;11.70;;
6193;SDS011;3130;41.564;23.280;2023-08-24T02:04:54;13.73;;;12.33;;
6193;SDS011;3130;41.564;23.280;2023-08-24T02:07:21;13.13;;;11.70;;
6193;SDS011;3130;41.564;23.280;2023-08-24T02:09:48;13.50;;;12.20;;
6193;SDS011;3130;41.564;23.280;2023-08-24T02:12:15;12.57;;;11.27;;
6193;SDS011;3130;41.564;23.280;2023-08-24T02:14:42;16.30;;;11.93;;
6193;SDS011;3130;41.564;23.280;2023-08-24T02:17:09;13.47;;;11.47;;
6193;SDS011;3130;41.564;23.280;2023-08-24T02:19:37;13.37;;;12.07;;
6193;SDS011;3130;41.564;23.280;2023-08-24T02:22:06;13.17;;;11.80;;
6193;SDS011;3130;41.564;23.280;2023-08-24T02:24:33;11.70;;;10.47;;
6193;SDS011;3130;41.564;23.280;2023-08-24T02:27:01;12.23;;;10.47;;
6193;SDS011;3130;41.564;23.280;2023-08-24T02:29:28;14.00;;;12.60;;
6193;SDS011;3130;41.564;23.280;2023-08-24T02:31:55;13.77;;;12.37;;
6193;SDS011;3130;41.564;23.280;2023-08-24T02:34:22;15.70;;;12.37;;
6193;SDS011;3130;41.564;23.280;2023-08-24T02:36:50;14.17;;;11.87;;
6193;SDS011;3130;41.564;23.280;2023-08-24T02:39:17;12.63;;;10.73;;
6193;SDS011;3130;41.564;23.280;2023-08-24T02:41:44;12.70;;;11.40;;
6193;SDS011;3130;41.564;23.280;2023-08-24T02:44:12;13.47;;;12.07;;
6193;SDS011;3130;41.564;23.280;2023-08-24T02:46:39;13.67;;;12.23;;
6193;SDS011;3130;41.564;23.280;2023-08-24T02:49:07;14.13;;;12.73;;
6193;SDS011;3130;41.564;23.280;2023-08-24T02:51:34;12.90;;;11.33;;
6193;SDS011;3130;41.564;23.280;2023-08-24T02:54:03;13.73;;;12.27;;
6193;SDS011;3130;41.564;23.280;2023-08-24T02:56:30;15.37;;;12.40;;
6193;SDS011;3130;41.564;23.280;2023-08-24T02:58:57;13.20;;;11.80;;
6193;SDS011;3130;41.564;23.280;2023-08-24T03:01:24;13.63;;;12.20;;
6193;SDS011;3130;41.564;23.280;2023-08-24T03:03:51;12.73;;;11.53;;
6193;SDS011;3130;41.564;23.280;2023-08-24T03:06:19;13.93;;;12.53;;
6193;SDS011;3130;41.564;23.280;2023-08-24T03:08:46;13.73;;;12.33;;
6193;SDS011;3130;41.564;23.280;2023-08-24T03:11:14;13.77;;;12.40;;
6193;SDS011;3130;41.564;23.280;2023-08-24T03:13:41;14.60;;;11.87;;
6193;SDS011;3130;41.564;23.280;2023-08-24T03:16:08;12.87;;;11.57;;
6193;SDS011;3130;41.564;23.280;2023-08-24T03:18:35;17.30;;;12.13;;
6193;SDS011;3130;41.564;23.280;2023-08-24T03:21:02;14.83;;;12.60;;
6193;SDS011;3130;41.564;23.280;2023-08-24T03:23:29;14.73;;;11.83;;
6193;SDS011;3130;41.564;23.280;2023-08-24T03:25:57;14.80;;;12.23;;
6193;SDS011;3130;41.564;23.280;2023-08-24T03:28:25;14.27;;;12.63;;
6193;SDS011;3130;41.564;23.280;2023-08-24T03:30:52;14.70;;;13.20;;
6193;SDS011;3130;41.564;23.280;2023-08-24T03:33:20;14.10;;;12.67;;
6193;SDS011;3130;41.564;23.280;2023-08-24T03:35:48;13.40;;;12.03;;
6193;SDS011;3130;41.564;23.280;2023-08-24T03:38:15;13.57;;;12.10;;
6193;SDS011;3130;41.564;23.280;2023-08-24T03:40:43;14.50;;;12.37;;
6193;SDS011;3130;41.564;23.280;2023-08-24T03:43:10;13.67;;;12.23;;
6193;SDS011;3130;41.564;23.280;2023-08-24T03:45:39;13.43;;;11.80;;
6193;SDS011;3130;41.564;23.280;2023-08-24T03:48:07;14.77;;;13.30;;
6193;SDS011;3130;41.564;23.280;2023-08-24T03:50:34;14.83;;;13.10;;
6193;SDS011;3130;41.564;23.280;2023-08-24T03:53:03;14.33;;;12.87;;
6193;SDS011;3130;41.564;23.280;2023-08-24T03:55:30;14.67;;;13.00;;
6193;SDS011;3130;41.564;23.280;2023-08-24T03:57:58;14.40;;;12.97;;
6193;SDS011;3130;41.564;23.280;2023-08-24T04:00:25;13.70;;;12.27;;
6193;SDS011;3130;41.564;23.280;2023-08-24T04:02:54;14.60;;;12.83;;
6193;SDS011;3130;41.564;23.280;2023-08-24T04:05:21;14.27;;;12.10;;
6193;SDS011;3130;41.564;23.280;2023-08-24T04:07:48;13.87;;;12.57;;
6193;SDS011;3130;41.564;23.280;2023-08-24T04:10:15;13.47;;;12.07;;
6193;SDS011;3130;41.564;23.280;2023-08-24T04:12:42;13.77;;;12.33;;
6193;SDS011;3130;41.564;23.280;2023-08-24T04:15:10;14.17;;;12.73;;
6193;SDS011;3130;41.564;23.280;2023-08-24T04:17:38;14.43;;;11.30;;
6193;SDS011;3130;41.564;23.280;2023-08-24T04:20:07;15.03;;;12.07;;
6193;SDS011;3130;41.564;23.280;2023-08-24T04:22:35;14.17;;;12.67;;
6193;SDS011;3130;41.564;23.280;2023-08-24T04:25:02;13.83;;;12.53;;
6193;SDS011;3130;41.564;23.280;2023-08-24T04:27:29;13.27;;;11.87;;
6193;SDS011;3130;41.564;23.280;2023-08-24T04:29:57;13.37;;;12.07;;
6193;SDS011;3130;41.564;23.280;2023-08-24T04:32:25;14.23;;;12.43;;
6193;SDS011;3130;41.564;23.280;2023-08-24T04:34:53;14.17;;;12.57;;
6193;SDS011;3130;41.564;23.280;2023-08-24T04:37:21;12.87;;;11.57;;
6193;SDS011;3130;41.564;23.280;2023-08-24T04:39:48;15.47;;;12.33;;
6193;SDS011;3130;41.564;23.280;2023-08-24T04:42:16;13.80;;;12.50;;
6193;SDS011;3130;41.564;23.280;2023-08-24T04:44:43;13.17;;;11.90;;
6193;SDS011;3130;41.564;23.280;2023-08-24T04:47:10;15.03;;;12.13;;
6193;SDS011;3130;41.564;23.280;2023-08-24T04:49:37;14.30;;;12.70;;
6193;SDS011;3130;41.564;23.280;2023-08-24T04:52:04;13.07;;;11.77;;
6193;SDS011;3130;41.564;23.280;2023-08-24T04:54:32;13.30;;;12.00;;
6193;SDS011;3130;41.564;23.280;2023-08-24T04:56:59;16.07;;;13.60;;
6193;SDS011;3130;41.564;23.280;2023-08-24T04:59:26;12.60;;;11.30;;
6193;SDS011;3130;41.564;23.280;2023-08-24T05:01:53;13.63;;;11.57;;
6193;SDS011;3130;41.564;23.280;2023-08-24T05:04:21;21.77;;;14.60;;
6193;SDS011;3130;41.564;23.280;2023-08-24T05:06:48;17.67;;;15.77;;
6193;SDS011;3130;41.564;23.280;2023-08-24T05:09:15;16.60;;;14.20;;
6193;SDS011;3130;41.564;23.280;2023-08-24T05:11:44;18.50;;;14.80;;
6193;SDS011;3130;41.564;23.280;2023-08-24T05:14:11;15.80;;;13.17;;
6193;SDS011;3130;41.564;23.280;2023-08-24T05:16:39;15.37;;;13.77;;
6193;SDS011;3130;41.564;23.280;2023-08-24T05:19:06;17.27;;;13.83;;
6193;SDS011;3130;41.564;23.280;2023-08-24T05:21:33;14.87;;;13.27;;
6193;SDS011;3130;41.564;23.280;2023-08-24T05:24:00;15.07;;;13.27;;
6193;SDS011;3130;41.564;23.280;2023-08-24T05:26:29;15.80;;;12.93;;
6193;SDS011;3130;41.564;23.280;2023-08-24T05:28:58;15.97;;;14.30;;
6193;SDS011;3130;41.564;23.280;2023-08-24T05:31:25;16.07;;;12.90;;
6193;SDS011;3130;41.564;23.280;2023-08-24T05:33:52;13.27;;;11.87;;
6193;SDS011;3130;41.564;23.280;2023-08-24T05:36:19;13.73;;;11.97;;
6193;SDS011;3130;41.564;23.280;2023-08-24T05:38:46;13.37;;;11.77;;
6193;SDS011;3130;41.564;23.280;2023-08-24T05:41:13;14.73;;;13.03;;
6193;SDS011;3130;41.564;23.280;2023-08-24T05:43:40;16.07;;;12.83;;
6193;SDS011;3130;41.564;23.280;2023-08-24T05:46:09;14.00;;;12.60;;
6193;SDS011;3130;41.564;23.280;2023-08-24T05:48:41;18.77;;;13.37;;
6193;SDS011;3130;41.564;23.280;2023-08-24T05:51:09;14.20;;;12.67;;
6193;SDS011;3130;41.564;23.280;2023-08-24T05:53:37;13.73;;;12.30;;
6193;SDS011;3130;41.564;23.280;2023-08-24T05:56:06;14.23;;;12.67;;
6193;SDS011;3130;41.564;23.280;2023-08-24T05:58:33;15.10;;;12.40;;
6193;SDS011;3130;41.564;23.280;2023-08-24T06:01:00;15.00;;;13.37;;
6193;SDS011;3130;41.564;23.280;2023-08-24T06:03:29;16.00;;;14.30;;
6193;SDS011;3130;41.564;23.280;2023-08-24T06:06:00;14.17;;;12.70;;
6193;SDS011;3130;41.564;23.280;2023-08-24T06:08:28;16.27;;;13.17;;
6193;SDS011;3130;41.564;23.280;2023-08-24T06:10:56;13.37;;;11.97;;
6193;SDS011;3130;41.564;23.280;2023-08-24T06:13:24;13.60;;;12.20;;
6193;SDS011;3130;41.564;23.280;2023-08-24T06:15:51;14.17;;;12.63;;
6193;SDS011;3130;41.564;23.280;2023-08-24T06:18:18;16.60;;;13.17;;
6193;SDS011;3130;41.564;23.280;2023-08-24T06:20:46;14.37;;;12.87;;
6193;SDS011;3130;41.564;23.280;2023-08-24T06:23:14;14.40;;;12.93;;
6193;SDS011;3130;41.564;23.280;2023-08-24T06:25:42;13.50;;;12.10;;
6193;SDS011;3130;41.564;23.280;2023-08-24T06:28:10;17.37;;;13.47;;
6193;SDS011;3130;41.564;23.280;2023-08-24T06:30:37;13.90;;;12.40;;
6193;SDS011;3130;41.564;23.280;2023-08-24T06:33:04;16.00;;;13.10;;
6193;SDS011;3130;41.564;23.280;2023-08-24T06:35:32;15.18;;;11.73;;
6193;SDS011;3130;41.564;23.280;2023-08-24T06:38:01;16.13;;;12.63;;
6193;SDS011;3130;41.564;23.280;2023-08-24T06:40:29;13.20;;;11.63;;
6193;SDS011;3130;41.564;23.280;2023-08-24T06:42:58;13.73;;;11.50;;
6193;SDS011;3130;41.564;23.280;2023-08-24T06:45:25;12.95;;;11.68;;
6193;SDS011;3130;41.564;23.280;2023-08-24T06:47:52;14.23;;;11.45;;
6193;SDS011;3130;41.564;23.280;2023-08-24T06:50:19;14.15;;;12.27;;
6193;SDS011;3130;41.564;23.280;2023-08-24T06:52:46;14.30;;;12.80;;
6193;SDS011;3130;41.564;23.280;2023-08-24T06:55:15;15.27;;;12.65;;
6193;SDS011;3130;41.564;23.280;2023-08-24T06:57:47;16.58;;;14.30;;
6193;SDS011;3130;41.564;23.280;2023-08-24T07:00:16;13.15;;;11.85;;
6193;SDS011;3130;41.564;23.280;2023-08-24T07:02:45;14.73;;;11.60;;
6193;SDS011;3130;41.564;23.280;2023-08-24T07:05:12;11.52;;;10.43;;
6193;SDS011;3130;41.564;23.280;2023-08-24T07:07:39;13.77;;;12.40;;
6193;SDS011;3130;41.564;23.280;2023-08-24T07:10:08;12.32;;;11.13;;
6193;SDS011;3130;41.564;23.280;2023-08-24T07:12:37;12.40;;;11.10;;
6193;SDS011;3130;41.564;23.280;2023-08-24T07:15:06;12.55;;;11.27;;
6193;SDS011;3130;41.564;23.280;2023-08-24T07:17:33;13.23;;;11.38;;
6193;SDS011;3130;41.564;23.280;2023-08-24T07:20:00;13.55;;;12.25;;
6193;SDS011;3130;41.564;23.280;2023-08-24T07:22:30;12.82;;;11.52;;
6193;SDS011;3130;41.564;23.280;2023-08-24T07:24:57;11.55;;;10.43;;
6193;SDS011;3130;41.564;23.280;2023-08-24T07:27:24;12.15;;;10.88;;
6193;SDS011;3130;41.564;23.280;2023-08-24T07:29:53;14.82;;;10.68;;
6193;SDS011;3130;41.564;23.280;2023-08-24T07:32:20;13.10;;;11.90;;
6193;SDS011;3130;41.564;23.280;2023-08-24T07:34:49;12.38;;;11.18;;
6193;SDS011;3130;41.564;23.280;2023-08-24T07:37:16;13.20;;;11.40;;
6193;SDS011;3130;41.564;23.280;2023-08-24T07:39:43;13.60;;;11.80;;
6193;SDS011;3130;41.564;23.280;2023-08-24T07:42:10;12.65;;;11.35;;
6193;SDS011;3130;41.564;23.280;2023-08-24T07:44:37;12.85;;;11.55;;
6193;SDS011;3130;41.564;23.280;2023-08-24T07:47:05;12.15;;;10.68;;
6193;SDS011;3130;41.564;23.280;2023-08-24T07:49:33;12.23;;;11.02;;
6193;SDS011;3130;41.564;23.280;2023-08-24T07:52:00;13.13;;;11.90;;
6193;SDS011;3130;41.564;23.280;2023-08-24T07:54:27;14.52;;;11.48;;
6193;SDS011;3130;41.564;23.280;2023-08-24T07:56:54;12.35;;;11.07;;
6193;SDS011;3130;41.564;23.280;2023-08-24T07:59:23;12.25;;;11.05;;
6193;SDS011;3130;41.564;23.280;2023-08-24T08:01:53;12.88;;;11.48;;
6193;SDS011;3130;41.564;23.280;2023-08-24T08:04:22;13.55;;;11.93;;
6193;SDS011;3130;41.564;23.280;2023-08-24T08:06:49;14.38;;;12.82;;
6193;SDS011;3130;41.564;23.280;2023-08-24T08:09:16;13.13;;;11.82;;
6193;SDS011;3130;41.564;23.280;2023-08-24T08:11:43;12.80;;;11.50;;
6193;SDS011;3130;41.564;23.280;2023-08-24T08:14:11;15.48;;;12.63;;
6193;SDS011;3130;41.564;23.280;2023-08-24T08:16:38;16.55;;;12.70;;
6193;SDS011;3130;41.564;23.280;2023-08-24T08:19:05;12.77;;;11.48;;
6193;SDS011;3130;41.564;23.280;2023-08-24T08:21:34;14.18;;;11.95;;
6193;SDS011;3130;41.564;23.280;2023-08-24T08:24:01;13.63;;;12.23;;
6193;SDS011;3130;41.564;23.280;2023-08-24T08:26:28;14.80;;;13.20;;
6193;SDS011;3130;41.564;23.280;2023-08-24T08:28:55;16.45;;;14.85;;
6193;SDS011;3130;41.564;23.280;2023-08-24T08:31:22;15.15;;;13.70;;
6193;SDS011;3130;41.564;23.280;2023-08-24T08:33:49;15.18;;;12.82;;
6193;SDS011;3130;41.564;23.280;2023-08-24T08:36:16;14.45;;;13.02;;
6193;SDS011;3130;41.564;23.280;2023-08-24T08:38:45;17.15;;;15.27;;
6193;SDS011;3130;41.564;23.280;2023-08-24T08:41:12;16.58;;;14.95;;
6193;SDS011;3130;41.564;23.280;2023-08-24T08:43:41;16.17;;;14.48;;
6193;SDS011;3130;41.564;23.280;2023-08-24T08:46:09;16.23;;;14.52;;
6193;SDS011;3130;41.564;23.280;2023-08-24T08:48:38;20.52;;;18.35;;
6193;SDS011;3130;41.564;23.280;2023-08-24T08:51:06;14.82;;;13.43;;
6193;SDS011;3130;41.564;23.280;2023-08-24T08:53:33;14.10;;;12.80;;
6193;SDS011;3130;41.564;23.280;2023-08-24T08:56:02;15.32;;;13.73;;
6193;SDS011;3130;41.564;23.280;2023-08-24T08:58:31;14.50;;;12.43;;
6193;SDS011;3130;41.564;23.280;2023-08-24T09:01:01;14.48;;;12.98;;
6193;SDS011;3130;41.564;23.280;2023-08-24T09:03:30;15.50;;;13.88;;
6193;SDS011;3130;41.564;23.280;2023-08-24T09:05:58;16.05;;;14.48;;
6193;SDS011;3130;41.564;23.280;2023-08-24T09:08:26;14.65;;;13.15;;
6193;SDS011;3130;41.564;23.280;2023-08-24T09:10:54;14.20;;;12.82;;
6193;SDS011;3130;41.564;23.280;2023-08-24T09:13:23;12.60;;;11.40;;
6193;SDS011;3130;41.564;23.280;2023-08-24T09:15:51;14.60;;;13.20;;
6193;SDS011;3130;41.564;23.280;2023-08-24T09:18:18;13.48;;;12.18;;
6193;SDS011;3130;41.564;23.280;2023-08-24T09:20:47;13.75;;;12.30;;
6193;SDS011;3130;41.564;23.280;2023-08-24T09:23:18;13.93;;;12.63;;
6193;SDS011;3130;41.564;23.280;2023-08-24T09:25:46;12.35;;;11.15;;
6193;SDS011;3130;41.564;23.280;2023-08-24T09:28:15;12.10;;;9.80;;
6193;SDS011;3130;41.564;23.280;2023-08-24T09:30:52;11.35;;;10.23;;
6193;SDS011;3130;41.564;23.280;2023-08-24T09:33:21;13.13;;;11.88;;
6193;SDS011;3130;41.564;23.280;2023-08-24T09:35:51;13.38;;;12.07;;
6193;SDS011;3130;41.564;23.280;2023-08-24T09:38:20;14.55;;;11.38;;
6193;SDS011;3130;41.564;23.280;2023-08-24T09:40:50;13.82;;;11.35;;
6193;SDS011;3130;41.564;23.280;2023-08-24T09:43:17;11.63;;;8.52;;
6193;SDS011;3130;41.564;23.280;2023-08-24T09:45:50;8.85;;;7.95;;
6193;SDS011;3130;41.564;23.280;2023-08-24T09:48:17;8.45;;;7.20;;
6193;SDS011;3130;41.564;23.280;2023-08-24T09:50:46;8.57;;;7.68;;
6193;SDS011;3130;41.564;23.280;2023-08-24T09:53:15;8.07;;;6.88;;
6193;SDS011;3130;41.564;23.280;2023-08-24T09:55:48;8.35;;;7.15;;
6193;SDS011;3130;41.564;23.280;2023-08-24T09:58:20;9.63;;;7.82;;
6193;SDS011;3130;41.564;23.280;2023-08-24T10:00:50;9.68;;;6.78;;
6193;SDS011;3130;41.564;23.280;2023-08-24T10:03:18;7.13;;;6.40;;
6193;SDS011;3130;41.564;23.280;2023-08-24T10:05:50;8.27;;;7.00;;
6193;SDS011;3130;41.564;23.280;2023-08-24T10:08:20;8.15;;;7.35;;
6193;SDS011;3130;41.564;23.280;2023-08-24T10:10:50;7.10;;;6.40;;
6193;SDS011;3130;41.564;23.280;2023-08-24T10:13:24;9.02;;;6.75;;
6193;SDS011;3130;41.564;23.280;2023-08-24T10:15:59;11.00;;;7.80;;
6193;SDS011;3130;41.564;23.280;2023-08-24T10:18:28;13.95;;;6.95;;
6193;SDS011;3130;41.564;23.280;2023-08-24T10:20:55;9.82;;;7.57;;
6193;SDS011;3130;41.564;23.280;2023-08-24T10:23:22;9.02;;;7.60;;
6193;SDS011;3130;41.564;23.280;2023-08-24T10:25:51;9.88;;;8.75;;
6193;SDS011;3130;41.564;23.280;2023-08-24T10:28:19;9.48;;;8.45;;
6193;SDS011;3130;41.564;23.280;2023-08-24T10:30:50;10.77;;;8.27;;
6193;SDS011;3130;41.564;23.280;2023-08-24T10:33:20;9.75;;;7.80;;
6193;SDS011;3130;41.564;23.280;2023-08-24T10:35:48;9.75;;;8.75;;
6193;SDS011;3130;41.564;23.280;2023-08-24T10:38:25;9.63;;;8.50;;
6193;SDS011;3130;41.564;23.280;2023-08-24T10:40:53;9.18;;;7.60;;
6193;SDS011;3130;41.564;23.280;2023-08-24T10:43:21;10.98;;;8.75;;
6193;SDS011;3130;41.564;23.280;2023-08-24T10:45:55;11.95;;;9.23;;
6193;SDS011;3130;41.564;23.280;2023-08-24T10:48:28;12.68;;;10.48;;
6193;SDS011;3130;41.564;23.280;2023-08-24T10:51:15;11.05;;;9.95;;
6193;SDS011;3130;41.564;23.280;2023-08-24T10:53:45;12.40;;;9.30;;
6193;SDS011;3130;41.564;23.280;2023-08-24T10:56:13;10.25;;;9.05;;
6193;SDS011;3130;41.564;23.280;2023-08-24T10:58:41;11.15;;;9.75;;
6193;SDS011;3130;41.564;23.280;2023-08-24T11:01:14;13.68;;;10.85;;
6193;SDS011;3130;41.564;23.280;2023-08-24T11:03:46;13.30;;;10.48;;
6193;SDS011;3130;41.564;23.280;2023-08-24T11:06:19;9.00;;;8.00;;
6193;SDS011;3130;41.564;23.280;2023-08-24T11:08:47;9.75;;;8.50;;
6193;SDS011;3130;41.564;23.280;2023-08-24T11:11:18;8.80;;;7.97;;
6193;SDS011;3130;41.564;23.280;2023-08-24T11:16:40;9.13;;;7.60;;
6193;SDS011;3130;41.564;23.280;2023-08-24T11:19:10;8.90;;;8.00;;
6193;SDS011;3130;41.564;23.280;2023-08-24T11:21:38;8.85;;;7.95;;
6193;SDS011;3130;41.564;23.280;2023-08-24T11:24:06;7.80;;;7.10;;
6193;SDS011;3130;41.564;23.280;2023-08-24T11:26:38;8.40;;;7.60;;
6193;SDS011;3130;41.564;23.280;2023-08-24T11:29:09;8.45;;;7.63;;
6193;SDS011;3130;41.564;23.280;2023-08-24T11:31:37;10.15;;;7.82;;
6193;SDS011;3130;41.564;23.280;2023-08-24T11:34:05;9.43;;;8.50;;
6193;SDS011;3130;41.564;23.280;2023-08-24T11:36:42;9.68;;;8.68;;
6193;SDS011;3130;41.564;23.280;2023-08-24T11:39:14;10.07;;;8.88;;
6193;SDS011;3130;41.564;23.280;2023-08-24T11:41:44;12.43;;;9.30;;
6193;SDS011;3130;41.564;23.280;2023-08-24T11:44:13;10.75;;;9.60;;
6193;SDS011;3130;41.564;23.280;2023-08-24T11:46:40;13.55;;;10.90;;
6193;SDS011;3130;41.564;23.280;2023-08-24T11:49:08;12.63;;;10.30;;
6193;SDS011;3130;41.564;23.280;2023-08-24T11:51:36;14.38;;;10.35;;
6193;SDS011;3130;41.564;23.280;2023-08-24T11:54:04;12.65;;;10.55;;
6193;SDS011;3130;41.564;23.280;2023-08-24T11:56:34;12.73;;;9.38;;
6193;SDS011;3130;41.564;23.280;2023-08-24T11:59:10;12.15;;;10.88;;
6193;SDS011;3130;41.564;23.280;2023-08-24T12:01:39;11.35;;;10.18;;
6193;SDS011;3130;41.564;23.280;2023-08-24T12:04:07;11.43;;;10.27;;
6193;SDS011;3130;41.564;23.280;2023-08-24T12:06:34;11.20;;;9.83;;
6193;SDS011;3130;41.564;23.280;2023-08-24T12:09:04;9.73;;;8.77;;
6193;SDS011;3130;41.564;23.280;2023-08-24T12:11:35;10.40;;;8.93;;
6193;SDS011;3130;41.564;23.280;2023-08-24T12:14:04;9.37;;;8.37;;
6193;SDS011;3130;41.564;23.280;2023-08-24T12:16:34;10.20;;;9.20;;
6193;SDS011;3130;41.564;23.280;2023-08-24T12:19:02;10.10;;;9.10;;
6193;SDS011;3130;41.564;23.280;2023-08-24T12:21:34;10.67;;;9.63;;
6193;SDS011;3130;41.564;23.280;2023-08-24T12:24:01;9.73;;;8.73;;
6193;SDS011;3130;41.564;23.280;2023-08-24T12:26:32;10.13;;;9.10;;
6193;SDS011;3130;41.564;23.280;2023-08-24T12:29:00;12.60;;;8.85;;
6193;SDS011;3130;41.564;23.280;2023-08-24T12:31:30;13.17;;;9.20;;
6193;SDS011;3130;41.564;23.280;2023-08-24T12:34:01;12.57;;;9.68;;
6193;SDS011;3130;41.564;23.280;2023-08-24T12:36:32;11.47;;;9.80;;
6193;SDS011;3130;41.564;23.280;2023-08-24T12:39:01;9.30;;;8.40;;
6193;SDS011;3130;41.564;23.280;2023-08-24T12:41:29;9.13;;;8.23;;
6193;SDS011;3130;41.564;23.280;2023-08-24T12:43:57;10.85;;;8.85;;
6193;SDS011;3130;41.564;23.280;2023-08-24T12:46:30;11.98;;;7.72;;
6193;SDS011;3130;41.564;23.280;2023-08-24T12:48:57;10.15;;;8.57;;
6193;SDS011;3130;41.564;23.280;2023-08-24T12:51:24;11.43;;;9.07;;
6193;SDS011;3130;41.564;23.280;2023-08-24T12:53:51;19.63;;;9.73;;
6193;SDS011;3130;41.564;23.280;2023-08-24T12:56:18;18.38;;;8.82;;
6193;SDS011;3130;41.564;23.280;2023-08-24T12:58:45;9.65;;;8.65;;
6193;SDS011;3130;41.564;23.280;2023-08-24T13:01:13;9.75;;;7.90;;
6193;SDS011;3130;41.564;23.280;2023-08-24T13:03:40;9.15;;;7.30;;
6193;SDS011;3130;41.564;23.280;2023-08-24T13:06:07;10.18;;;8.60;;
6193;SDS011;3130;41.564;23.280;2023-08-24T13:08:34;9.13;;;8.23;;
6193;SDS011;3130;41.564;23.280;2023-08-24T13:11:02;9.10;;;7.53;;
6193;SDS011;3130;41.564;23.280;2023-08-24T13:13:29;7.70;;;6.85;;
6193;SDS011;3130;41.564;23.280;2023-08-24T13:15:56;7.80;;;7.00;;
6193;SDS011;3130;41.564;23.280;2023-08-24T13:18:24;9.00;;;7.90;;
6193;SDS011;3130;41.564;23.280;2023-08-24T13:20:51;8.93;;;8.02;;
6193;SDS011;3130;41.564;23.280;2023-08-24T13:23:18;8.60;;;7.75;;
6193;SDS011;3130;41.564;23.280;2023-08-24T13:25:45;7.43;;;6.60;;
6193;SDS011;3130;41.564;23.280;2023-08-24T13:28:12;8.75;;;7.95;;
6193;SDS011;3130;41.564;23.280;2023-08-24T13:30:40;8.73;;;7.60;;
6193;SDS011;3130;41.564;23.280;2023-08-24T13:33:08;8.18;;;7.38;;
6193;SDS011;3130;41.564;23.280;2023-08-24T13:35:36;10.73;;;7.30;;
6193;SDS011;3130;41.564;23.280;2023-08-24T13:38:03;8.82;;;7.72;;
6193;SDS011;3130;41.564;23.280;2023-08-24T13:40:30;9.68;;;8.68;;
6193;SDS011;3130;41.564;23.280;2023-08-24T13:42:57;8.75;;;7.82;;
6193;SDS011;3130;41.564;23.280;2023-08-24T13:45:24;8.45;;;7.53;;
6193;SDS011;3130;41.564;23.280;2023-08-24T13:47:51;7.82;;;7.03;;
6193;SDS011;3130;41.564;23.280;2023-08-24T13:50:18;8.60;;;7.75;;
6193;SDS011;3130;41.564;23.280;2023-08-24T13:52:47;9.25;;;7.72;;
6193;SDS011;3130;41.564;23.280;2023-08-24T13:55:14;9.05;;;8.13;;
6193;SDS011;3130;41.564;23.280;2023-08-24T13:57:41;8.63;;;7.82;;
6193;SDS011;3130;41.564;23.280;2023-08-24T14:00:09;7.80;;;6.70;;
6193;SDS011;3130;41.564;23.280;2023-08-24T14:02:37;8.73;;;7.93;;
6193;SDS011;3130;41.564;23.280;2023-08-24T14:05:04;8.88;;;7.97;;
6193;SDS011;3130;41.564;23.280;2023-08-24T14:07:34;10.13;;;8.13;;
6193;SDS011;3130;41.564;23.280;2023-08-24T14:10:03;10.35;;;8.45;;
6193;SDS011;3130;41.564;23.280;2023-08-24T14:12:31;15.05;;;11.40;;
6193;SDS011;3130;41.564;23.280;2023-08-24T14:14:58;9.25;;;8.35;;
6193;SDS011;3130;41.564;23.280;2023-08-24T14:17:25;10.80;;;9.80;;
6193;SDS011;3130;41.564;23.280;2023-08-24T14:22:39;10.77;;;9.10;;
6193;SDS011;3130;41.564;23.280;2023-08-24T14:25:08;9.10;;;8.10;;
6193;SDS011;3130;41.564;23.280;2023-08-24T14:27:36;9.35;;;8.45;;
6193;SDS011;3130;41.564;23.280;2023-08-24T14:30:04;9.30;;;8.40;;
6193;SDS011;3130;41.564;23.280;2023-08-24T14:32:32;9.98;;;8.95;;
6193;SDS011;3130;41.564;23.280;2023-08-24T14:34:59;10.70;;;9.48;;
6193;SDS011;3130;41.564;23.280;2023-08-24T14:37:27;10.75;;;9.65;;
6193;SDS011;3130;41.564;23.280;2023-08-24T14:39:55;9.77;;;8.75;;
6193;SDS011;3130;41.564;23.280;2023-08-24T14:42:23;10.95;;;9.32;;
6193;SDS011;3130;41.564;23.280;2023-08-24T14:44:50;10.73;;;9.30;;
6193;SDS011;3130;41.564;23.280;2023-08-24T14:47:18;13.98;;;8.80;;
6193;SDS011;3130;41.564;23.280;2023-08-24T14:49:45;9.45;;;8.55;;
6193;SDS011;3130;41.564;23.280;2023-08-24T14:52:13;9.52;;;8.60;;